createdAt,value
2024-01-05T00:01:28.484Z,97279.91
2024-01-05T00:03:54.996Z,97276.69
2024-01-05T00:06:21.605Z,97275.69
2024-01-05T00:08:48.049Z,97277.31
2024-01-05T00:11:21.043Z,97282.16
2024-01-05T00:13:48.176Z,97283.34
2024-01-05T00:16:24.466Z,97286.25
2024-01-05T00:18:51.588Z,97274.50
2024-01-05T00:21:22.542Z,97276.41
2024-01-05T00:23:52.034Z,97271.09
2024-01-05T00:26:19.274Z,97272.13
2024-01-05T00:28:46.515Z,97276.41
2024-01-05T00:31:14.471Z,97266.69
2024-01-05T00:33:41.867Z,97266.41
2024-01-05T00:36:10.155Z,97259.31
2024-01-05T00:38:37.111Z,97270.06
2024-01-05T00:41:04.289Z,97266.53
2024-01-05T00:43:30.885Z,97270.47
2024-01-05T00:45:57.552Z,97276.38
2024-01-05T00:48:24.448Z,97279.91
2024-01-05T00:50:50.962Z,97279.00
2024-01-05T00:53:17.422Z,97275.78
2024-01-05T00:55:43.774Z,97264.63
2024-01-05T00:58:10.243Z,97269.00
2024-01-05T01:00:36.840Z,97264.28
2024-01-05T01:03:04.395Z,97263.25
2024-01-05T01:05:31.048Z,97266.41
2024-01-05T01:07:57.538Z,97263.69
2024-01-05T01:10:23.919Z,97261.22
2024-01-05T01:12:50.288Z,97272.88
2024-01-05T01:15:16.784Z,97256.50
2024-01-05T01:17:43.274Z,97264.91
2024-01-05T01:20:10.103Z,97268.19
2024-01-05T01:22:36.561Z,97275.84
2024-01-05T01:25:03.023Z,97272.38
2024-01-05T01:27:30.424Z,97284.75
2024-01-05T01:29:56.893Z,97277.44
2024-01-05T01:32:23.875Z,97281.84
2024-01-05T01:34:50.367Z,97284.03
2024-01-05T01:37:16.813Z,97268.13
2024-01-05T01:39:43.212Z,97260.31
2024-01-05T01:42:09.702Z,97260.16
2024-01-05T01:44:36.229Z,97262.22
2024-01-05T01:47:03.290Z,97247.50
2024-01-05T01:49:29.895Z,97242.34
2024-01-05T01:51:56.483Z,97244.13
2024-01-05T01:54:22.920Z,97242.06
2024-01-05T01:56:50.435Z,97249.28
2024-01-05T01:59:16.985Z,97244.72
2024-01-05T02:01:44.296Z,97241.78
2024-01-05T02:04:16.044Z,97243.84
2024-01-05T02:06:46.037Z,97248.84
2024-01-05T02:09:13.380Z,97246.03
2024-01-05T02:11:43.108Z,97249.56
2024-01-05T02:14:09.857Z,97237.34
2024-01-05T02:16:36.238Z,97237.66
2024-01-05T02:19:02.933Z,97233.50
2024-01-05T02:21:39.820Z,97229.09
2024-01-05T02:24:06.682Z,97230.59
2024-01-05T02:26:33.246Z,97234.56
2024-01-05T02:28:59.793Z,97227.94
2024-01-05T02:31:26.401Z,97234.13
2024-01-05T02:33:53.096Z,97226.75
2024-01-05T02:36:19.814Z,97230.44
2024-01-05T02:38:46.226Z,97228.50
2024-01-05T02:41:12.607Z,97224.22
2024-01-05T02:43:38.985Z,97219.22
2024-01-05T02:46:05.399Z,97219.22
2024-01-05T02:48:31.999Z,97223.06
2024-01-05T02:50:58.546Z,97227.31
2024-01-05T02:53:24.990Z,97226.75
2024-01-05T02:55:51.379Z,97234.25
2024-01-05T02:58:17.790Z,97228.50
2024-01-05T03:00:44.922Z,97223.81
2024-01-05T03:03:11.484Z,97222.16
2024-01-05T03:05:38.012Z,97232.81
2024-01-05T03:08:04.960Z,97225.56
2024-01-05T03:10:31.380Z,97227.47
2024-01-05T03:12:57.749Z,97214.81
2024-01-05T03:15:24.198Z,97211.81
2024-01-05T03:17:51.887Z,97208.72
2024-01-05T03:20:19.124Z,97199.00
2024-01-05T03:22:45.604Z,97205.66
2024-01-05T03:25:11.991Z,97201.41
2024-01-05T03:27:38.437Z,97212.03
2024-01-05T03:30:05.533Z,97213.19
2024-01-05T03:32:32.091Z,97204.50
2024-01-05T03:34:58.524Z,97207.16
2024-01-05T03:37:24.883Z,97203.75
2024-01-05T03:39:51.280Z,97184.47
2024-01-05T03:42:17.834Z,97181.06
2024-01-05T03:44:44.241Z,97180.59
2024-01-05T03:47:10.609Z,97175.47
2024-01-05T03:49:37.631Z,97168.97
2024-01-05T03:52:04.657Z,97172.34
2024-01-05T03:54:31.211Z,97164.84
2024-01-05T03:56:57.688Z,97163.69
2024-01-05T03:59:24.156Z,97156.59
2024-01-05T04:01:50.777Z,97153.94
2024-01-05T04:04:17.457Z,97151.59
2024-01-05T04:06:44.445Z,97145.13
2024-01-05T04:09:11.396Z,97140.25
2024-01-05T04:11:41.082Z,97137.16
2024-01-05T04:14:08.291Z,97132.00
2024-01-05T04:16:35.909Z,97126.69
2024-01-05T04:19:03.054Z,97121.13
2024-01-05T04:21:29.795Z,97128.91
2024-01-05T04:23:58.303Z,97120.97
2024-01-05T04:26:24.708Z,97124.47
2024-01-05T04:28:51.173Z,97116.69
2024-01-05T04:31:17.659Z,97117.13
2024-01-05T04:33:44.367Z,97111.69
2024-01-05T04:36:11.496Z,97102.84
2024-01-05T04:38:38.106Z,97096.94
2024-01-05T04:41:04.869Z,97099.16
2024-01-05T04:43:31.351Z,97094.16
2024-01-05T04:45:57.764Z,97094.44
2024-01-05T04:48:24.276Z,97089.44
2024-01-05T04:50:51.463Z,97095.47
2024-01-05T04:53:18.113Z,97087.94
2024-01-05T04:55:44.469Z,97090.91
2024-01-05T04:58:10.875Z,97093.25
2024-01-05T05:00:37.765Z,97083.25
2024-01-05T05:03:04.579Z,97083.84
2024-01-05T05:05:31.062Z,97078.25
2024-01-05T05:07:58.420Z,97072.53
2024-01-05T05:10:24.838Z,97075.72
2024-01-05T05:12:51.292Z,97076.31
2024-01-05T05:15:17.851Z,97080.03
2024-01-05T05:17:44.345Z,97079.28
2024-01-05T05:20:11.450Z,97063.38
2024-01-05T05:22:37.856Z,97059.09
2024-01-05T05:25:07.485Z,97065.84
2024-01-05T05:27:34.669Z,97044.63
2024-01-05T05:30:05.449Z,97057.03
2024-01-05T05:32:32.007Z,97077.19
2024-01-05T05:34:59.052Z,97080.72
2024-01-05T05:37:25.504Z,97090.03
2024-01-05T05:39:51.922Z,97095.63
2024-01-05T05:42:18.374Z,97094.91
2024-01-05T05:44:44.828Z,97100.94
2024-01-05T05:47:11.410Z,97110.22
2024-01-05T05:49:38.015Z,97108.59
2024-01-05T05:52:07.948Z,97101.09
2024-01-05T05:54:34.403Z,97112.25
2024-01-05T05:57:01.087Z,97115.66
2024-01-05T05:59:28.337Z,97117.28
2024-01-05T06:01:55.492Z,97118.00
2024-01-05T06:04:22.050Z,97123.91
2024-01-05T06:06:48.524Z,97124.16
2024-01-05T06:09:16.161Z,97133.59
2024-01-05T06:11:43.015Z,97131.13
2024-01-05T06:14:09.624Z,97136.09
2024-01-05T06:16:36.034Z,97133.16
2024-01-05T06:19:03.156Z,97134.16
2024-01-05T06:21:29.671Z,97120.75
2024-01-05T06:23:56.183Z,97117.53
2024-01-05T06:26:22.783Z,97115.03
2024-01-05T06:28:49.261Z,97110.16
2024-01-05T06:31:15.765Z,97110.72
2024-01-05T06:33:43.267Z,97111.78
2024-01-05T06:36:09.756Z,97115.63
2024-01-05T06:38:36.182Z,97107.78
2024-01-05T06:41:02.577Z,97110.84
2024-01-05T06:43:28.996Z,97118.97
2024-01-05T06:45:55.410Z,97122.81
2024-01-05T06:48:21.979Z,97114.19
2024-01-05T06:50:48.680Z,97120.06
2024-01-05T06:53:15.070Z,97109.44
2024-01-05T06:55:41.461Z,97105.78
2024-01-05T06:58:09.210Z,97102.63
2024-01-05T07:00:39.095Z,97102.03
2024-01-05T07:03:05.988Z,97100.56
2024-01-05T07:05:32.526Z,97098.06
2024-01-05T07:07:58.969Z,97101.56
2024-01-05T07:10:25.354Z,97103.03
2024-01-05T07:12:51.805Z,97099.19
2024-01-05T07:15:18.284Z,97092.78
2024-01-05T07:17:45.463Z,97085.31
2024-01-05T07:20:14.937Z,97094.38
2024-01-05T07:22:41.466Z,97091.28
2024-01-05T07:25:10.656Z,97089.59
2024-01-05T07:27:38.249Z,97095.44
2024-01-05T07:30:05.406Z,97089.06
2024-01-05T07:32:31.904Z,97078.91
2024-01-05T07:34:58.444Z,97080.09
2024-01-05T07:37:25.688Z,97088.94
2024-01-05T07:39:52.105Z,97084.84
2024-01-05T07:42:18.721Z,97085.97
2024-01-05T07:44:45.101Z,97088.50
2024-01-05T07:47:12.285Z,97097.88
2024-01-05T07:49:38.813Z,97093.09
2024-01-05T07:52:05.578Z,97092.81
2024-01-05T07:54:32.255Z,97087.28
2024-01-05T07:56:58.717Z,97086.06
2024-01-05T07:59:25.457Z,97088.97
2024-01-05T08:01:53.066Z,97088.13
2024-01-05T08:04:19.932Z,97093.19
2024-01-05T08:06:48.656Z,97082.69
2024-01-05T08:09:15.139Z,97076.84
2024-01-05T08:11:41.886Z,97078.63
2024-01-05T08:14:11.169Z,97073.81
2024-01-05T08:16:37.958Z,97076.00
2024-01-05T08:19:04.503Z,97070.38
2024-01-05T08:21:31.263Z,97065.34
2024-01-05T08:23:57.810Z,97063.91
2024-01-05T08:26:24.255Z,97057.97
2024-01-05T08:28:50.674Z,97060.69
2024-01-05T08:31:17.269Z,97059.41
2024-01-05T08:33:44.670Z,97060.88
2024-01-05T08:36:11.291Z,97055.78
2024-01-05T08:38:37.684Z,97063.75
2024-01-05T08:41:04.203Z,97052.56
2024-01-05T08:43:31.210Z,97050.97
2024-01-05T08:45:57.636Z,97057.13
2024-01-05T08:48:24.135Z,97061.00
2024-01-05T08:50:50.686Z,97061.88
2024-01-05T08:53:21.089Z,97050.88
2024-01-05T08:55:47.916Z,97054.09
2024-01-05T08:58:14.335Z,97055.97
2024-01-05T09:00:41.589Z,97054.72
2024-01-05T09:03:08.186Z,97052.13
2024-01-05T09:05:34.824Z,97054.44
2024-01-05T09:08:01.356Z,97061.31
2024-01-05T09:10:27.943Z,97054.09
2024-01-05T09:12:54.493Z,97054.81
2024-01-05T09:15:22.162Z,97059.13
2024-01-05T09:17:48.744Z,97057.75
2024-01-05T09:20:15.280Z,97056.22
2024-01-05T09:22:41.791Z,97047.50
2024-01-05T09:25:09.443Z,97049.09
2024-01-05T09:27:36.186Z,97047.06
2024-01-05T09:30:04.535Z,97048.56
2024-01-05T09:32:31.710Z,97045.38
2024-01-05T09:34:58.253Z,97041.38
2024-01-05T09:37:24.682Z,97034.03
2024-01-05T09:39:51.068Z,97042.06
2024-01-05T09:42:17.636Z,97043.50
2024-01-05T09:44:44.591Z,97039.59
2024-01-05T09:47:11.936Z,97040.09
2024-01-05T09:49:38.668Z,97039.56
2024-01-05T09:52:05.426Z,97034.66
2024-01-05T09:54:31.925Z,97040.84
2024-01-05T09:56:58.925Z,97034.22
2024-01-05T09:59:26.163Z,97042.75
2024-01-05T10:01:55.000Z,97047.69
2024-01-05T10:04:21.846Z,97037.03
2024-01-05T10:06:59.552Z,97042.97
2024-01-05T10:09:26.161Z,97035.69
2024-01-05T10:11:52.568Z,97039.06
2024-01-05T10:14:26.076Z,97037.78
2024-01-05T10:17:07.924Z,97027.94
2024-01-05T10:19:34.947Z,97027.63
2024-01-05T10:22:09.690Z,97037.06
2024-01-05T10:24:36.272Z,97031.16
2024-01-05T10:27:05.527Z,97026.94
2024-01-05T10:29:33.944Z,97024.13
2024-01-05T10:32:18.789Z,97024.13
2024-01-05T10:34:47.788Z,97022.28
2024-01-05T10:37:16.059Z,97022.94
2024-01-05T10:39:49.858Z,97010.97
2024-01-05T10:42:19.000Z,97011.63
2024-01-05T10:44:48.800Z,97004.06
2024-01-05T10:47:18.549Z,96997.94
2024-01-05T10:49:50.655Z,97002.72
2024-01-05T10:52:21.854Z,96994.34
2024-01-05T10:54:51.250Z,97000.78
2024-01-05T10:57:19.563Z,96995.91
2024-01-05T10:59:55.509Z,96997.69
2024-01-05T11:02:42.890Z,96999.06
2024-01-05T11:05:13.977Z,96993.28
2024-01-05T11:07:42.085Z,96990.22
2024-01-05T11:10:29.787Z,96995.19
2024-01-05T11:13:38.475Z,96981.63
2024-01-05T11:16:42.756Z,96972.50
2024-01-05T11:19:18.341Z,96971.41
2024-01-05T11:21:58.583Z,96972.09
2024-01-05T11:24:25.778Z,96957.19
2024-01-05T11:26:53.098Z,96958.28
2024-01-05T11:29:48.200Z,96966.66
2024-01-05T11:32:45.355Z,96964.41
2024-01-05T11:35:18.005Z,96964.97
2024-01-05T11:37:45.203Z,96965.22
2024-01-05T11:40:27.004Z,96968.66
2024-01-05T11:42:53.808Z,96964.94
2024-01-05T11:45:50.955Z,96962.56
2024-01-05T11:48:36.679Z,96953.31
2024-01-05T11:51:04.213Z,96955.78
2024-01-05T11:53:31.474Z,96947.31
2024-01-05T11:56:00.147Z,96940.91
2024-01-05T11:58:33.153Z,96933.22
2024-01-05T12:01:01.004Z,96934.81
2024-01-05T12:03:28.328Z,96920.13
2024-01-05T12:06:02.433Z,96929.00
2024-01-05T12:08:29.314Z,96914.06
2024-01-05T12:10:57.576Z,96912.84
2024-01-05T12:13:26.475Z,96918.53
2024-01-05T12:16:01.602Z,96923.34
2024-01-05T12:18:37.296Z,96924.19
2024-01-05T12:21:07.201Z,96927.06
2024-01-05T12:23:34.458Z,96914.50
2024-01-05T12:26:09.373Z,96914.00
2024-01-05T12:28:37.855Z,96917.34
2024-01-05T12:31:06.051Z,96910.31
2024-01-05T12:33:34.922Z,96915.31
2024-01-05T12:36:01.645Z,96911.84
2024-01-05T12:38:29.889Z,96921.16
2024-01-05T12:41:10.590Z,96917.66
2024-01-05T12:43:37.904Z,96924.25
2024-01-05T12:46:06.181Z,96920.59
2024-01-05T12:48:33.775Z,96922.25
2024-01-05T12:51:09.003Z,96919.13
2024-01-05T12:53:36.369Z,96922.91
2024-01-05T12:56:18.456Z,96929.06
2024-01-05T12:58:47.391Z,96935.72
2024-01-05T13:01:18.705Z,96928.81
2024-01-05T13:03:53.488Z,96930.41
2024-01-05T13:06:22.042Z,96924.91
2024-01-05T13:08:48.855Z,96929.34
2024-01-05T13:11:15.399Z,96921.34
2024-01-05T13:13:41.775Z,96911.13
2024-01-05T13:16:08.353Z,96916.50
2024-01-05T13:18:34.992Z,96917.47
2024-01-05T13:21:01.461Z,96926.47
2024-01-05T13:23:30.337Z,96922.38
2024-01-05T13:25:56.727Z,96919.84
2024-01-05T13:28:23.128Z,96922.56
2024-01-05T13:30:49.654Z,96928.34
2024-01-05T13:33:16.385Z,96929.06
2024-01-05T13:35:42.922Z,96923.03
2024-01-05T13:38:09.395Z,96916.41
2024-01-05T13:40:37.532Z,96905.59
2024-01-05T13:43:04.310Z,96903.06
2024-01-05T13:45:30.957Z,96901.34
2024-01-05T13:47:57.476Z,96914.91
2024-01-05T13:50:23.869Z,96907.06
2024-01-05T13:52:50.252Z,96919.84
2024-01-05T13:55:16.881Z,96899.69
2024-01-05T13:57:43.692Z,96897.91
2024-01-05T14:00:10.648Z,96915.88
2024-01-05T14:02:37.148Z,96910.41
2024-01-05T14:05:05.402Z,96904.47
2024-01-05T14:07:31.958Z,96908.13
2024-01-05T14:09:58.927Z,96907.38
2024-01-05T14:12:25.604Z,96907.06
2024-01-05T14:14:52.586Z,96910.59
2024-01-05T14:17:18.985Z,96916.50
2024-01-05T14:19:46.877Z,96927.53
2024-01-05T14:22:13.375Z,96932.41
2024-01-05T14:24:40.896Z,96926.53
2024-01-05T14:27:07.431Z,96924.19
2024-01-05T14:29:33.901Z,96924.94
2024-01-05T14:32:01.462Z,96921.06
2024-01-05T14:34:28.171Z,96924.66
2024-01-05T14:36:54.835Z,96916.53
2024-01-05T14:39:23.752Z,96914.56
2024-01-05T14:41:50.256Z,96914.56
2024-01-05T14:44:16.629Z,96922.22
2024-01-05T14:46:43.081Z,96923.03
2024-01-05T14:49:09.578Z,96926.09
2024-01-05T14:51:36.061Z,96928.34
2024-01-05T14:54:02.659Z,96926.91
2024-01-05T14:56:30.945Z,96922.22
2024-01-05T14:58:57.413Z,96917.94
2024-01-05T15:01:23.809Z,96923.31
2024-01-05T15:03:50.412Z,96915.06
2024-01-05T15:06:17.052Z,96915.56
2024-01-05T15:08:43.577Z,96915.09
2024-01-05T15:11:17.898Z,96910.44
2024-01-05T15:13:44.340Z,96911.16
2024-01-05T15:16:10.756Z,96909.69
2024-01-05T15:18:37.263Z,96908.06
2024-01-05T15:21:06.514Z,96912.63
2024-01-05T15:23:34.673Z,96909.25
2024-01-05T15:26:01.839Z,96914.75
2024-01-05T15:28:29.011Z,96914.38
2024-01-05T15:30:55.740Z,96919.31
2024-01-05T15:33:22.317Z,96916.59
2024-01-05T15:35:49.680Z,96909.56
2024-01-05T15:38:16.298Z,96909.41
2024-01-05T15:40:42.737Z,96906.13
2024-01-05T15:43:09.359Z,96925.00
2024-01-05T15:45:35.955Z,96923.38
2024-01-05T15:48:02.710Z,96929.06
2024-01-05T15:50:29.311Z,96918.41
2024-01-05T15:52:55.783Z,96917.75
2024-01-05T15:55:23.397Z,96920.69
2024-01-05T15:57:50.024Z,96929.97
2024-01-05T16:00:16.798Z,96923.81
2024-01-05T16:02:43.385Z,96925.53
2024-01-05T16:05:10.058Z,96926.69
2024-01-05T16:07:36.680Z,96932.78
2024-01-05T16:10:05.018Z,96928.78
2024-01-05T16:12:31.744Z,96937.13
2024-01-05T16:14:58.171Z,96940.13
2024-01-05T16:17:24.577Z,96940.94
2024-01-05T16:19:51.043Z,96936.38
2024-01-05T16:22:17.518Z,96938.97
2024-01-05T16:24:44.093Z,96942.06
2024-01-05T16:27:10.815Z,96938.34
2024-01-05T16:29:37.262Z,96939.88
2024-01-05T16:32:03.851Z,96940.69
2024-01-05T16:34:30.484Z,96945.31
2024-01-05T16:37:00.201Z,96953.50
2024-01-05T16:39:26.666Z,96947.38
2024-01-05T16:41:53.143Z,96957.28
2024-01-05T16:44:19.542Z,96952.78
2024-01-05T16:46:45.958Z,96959.47
2024-01-05T16:49:12.550Z,96956.09
2024-01-05T16:51:39.173Z,96965.19
2024-01-05T16:54:06.028Z,96962.00
2024-01-05T16:56:33.937Z,96963.13
2024-01-05T16:59:00.329Z,96970.28
2024-01-05T17:01:27.092Z,96970.59
2024-01-05T17:03:57.901Z,96959.16
2024-01-05T17:06:24.962Z,96970.22
2024-01-05T17:08:51.385Z,96969.16
2024-01-05T17:11:17.822Z,96975.63
2024-01-05T17:13:44.208Z,96974.16
2024-01-05T17:16:11.172Z,96974.41
2024-01-05T17:18:39.113Z,96974.88
2024-01-05T17:21:09.931Z,96973.09
2024-01-05T17:23:37.219Z,96966.19
2024-01-05T17:26:04.179Z,96969.53
2024-01-05T17:28:30.670Z,96976.69
2024-01-05T17:30:58.007Z,96977.31
2024-01-05T17:33:25.957Z,96981.72
2024-01-05T17:35:56.712Z,96979.00
2024-01-05T17:38:23.186Z,96984.03
2024-01-05T17:40:49.602Z,96979.94
2024-01-05T17:43:16.032Z,96979.66
2024-01-05T17:45:42.796Z,96980.09
2024-01-05T17:48:09.415Z,96982.50
2024-01-05T17:50:35.965Z,96973.59
2024-01-05T17:53:02.407Z,96979.97
2024-01-05T17:55:28.777Z,96977.66
2024-01-05T17:57:55.700Z,96978.38
2024-01-05T18:00:22.155Z,96967.81
2024-01-05T18:02:48.638Z,96964.06
2024-01-05T18:05:15.047Z,96965.25
2024-01-05T18:07:42.376Z,96959.19
2024-01-05T18:10:09.658Z,96964.25
2024-01-05T18:12:36.391Z,96955.69
2024-01-05T18:15:03.002Z,96957.00
2024-01-05T18:17:29.522Z,96958.25
2024-01-05T18:19:56.677Z,96961.75
2024-01-05T18:22:23.172Z,96970.13
2024-01-05T18:24:49.638Z,96969.06
2024-01-05T18:27:16.143Z,96967.38
2024-01-05T18:29:42.601Z,96976.72
2024-01-05T18:32:09.670Z,96975.91
2024-01-05T18:34:37.345Z,96980.22
2024-01-05T18:37:04.050Z,96977.44
2024-01-05T18:39:30.711Z,96971.25
2024-01-05T18:41:57.502Z,96976.44
2024-01-05T18:44:24.002Z,96972.31
2024-01-05T18:46:53.065Z,96980.19
2024-01-05T18:49:20.105Z,96987.03
2024-01-05T18:51:46.729Z,96984.34
2024-01-05T18:54:13.267Z,96982.72
2024-01-05T18:56:39.784Z,96987.75
2024-01-05T18:59:06.304Z,96986.44
2024-01-05T19:01:33.343Z,96991.00
2024-01-05T19:04:00.360Z,96986.06
2024-01-05T19:06:27.309Z,96984.13
2024-01-05T19:08:53.880Z,96987.69
2024-01-05T19:11:20.543Z,96977.63
2024-01-05T19:13:47.007Z,96988.00
2024-01-05T19:16:14.006Z,96986.56
2024-01-05T19:18:40.563Z,96995.91
2024-01-05T19:21:07.219Z,96991.91
2024-01-05T19:23:34.468Z,96994.72
2024-01-05T19:26:01.185Z,96995.41
2024-01-05T19:28:27.955Z,96997.38
2024-01-05T19:30:55.518Z,96993.09
2024-01-05T19:33:22.497Z,97002.50
2024-01-05T19:35:49.501Z,96998.84
2024-01-05T19:38:16.491Z,97006.72
2024-01-05T19:40:44.649Z,97010.44
2024-01-05T19:43:14.567Z,97003.03
2024-01-05T19:45:42.408Z,97010.53
2024-01-05T19:48:09.809Z,97002.28
2024-01-05T19:50:38.507Z,97002.50
2024-01-05T19:53:05.786Z,97005.16
2024-01-05T19:55:33.092Z,97008.69
2024-01-05T19:57:59.825Z,97009.72
2024-01-05T20:00:26.451Z,97007.38
2024-01-05T20:02:54.207Z,97007.47
2024-01-05T20:05:21.472Z,97009.09
2024-01-05T20:07:48.011Z,97005.75
2024-01-05T20:10:14.416Z,97002.50
2024-01-05T20:12:46.202Z,97002.84
2024-01-05T20:15:12.897Z,96998.44
2024-01-05T20:17:39.365Z,96997.38
2024-01-05T20:20:06.220Z,97001.13
2024-01-05T20:22:32.792Z,96993.63
2024-01-05T20:24:59.283Z,96998.19
2024-01-05T20:27:35.978Z,97007.13
2024-01-05T20:30:02.474Z,97011.84
2024-01-05T20:32:29.247Z,97010.88
2024-01-05T20:34:55.887Z,97018.78
2024-01-05T20:37:22.376Z,97020.47
2024-01-05T20:39:49.037Z,97012.91
2024-01-05T20:42:15.526Z,97011.25
2024-01-05T20:44:44.061Z,97010.59
2024-01-05T20:47:10.525Z,97004.22
2024-01-05T20:49:37.035Z,97001.34
2024-01-05T20:52:03.797Z,97007.13
2024-01-05T20:54:30.262Z,97009.88
2024-01-05T20:56:56.762Z,97010.72
2024-01-05T20:59:23.202Z,97009.25
2024-01-05T21:01:50.073Z,97003.16
2024-01-05T21:04:17.115Z,97001.44
2024-01-05T21:06:45.276Z,97006.75
2024-01-05T21:09:12.996Z,97006.22
2024-01-05T21:11:39.351Z,96997.13
2024-01-05T21:14:05.765Z,97003.81
2024-01-05T21:16:32.234Z,97004.00
2024-01-05T21:18:59.290Z,97014.94
2024-01-05T21:21:28.776Z,97012.47
2024-01-05T21:23:56.957Z,97015.56
2024-01-05T21:26:23.665Z,97010.75
2024-01-05T21:28:50.099Z,97010.19
2024-01-05T21:31:17.192Z,97016.91
2024-01-05T21:33:45.388Z,97015.56
2024-01-05T21:36:14.977Z,97015.13
2024-01-05T21:38:41.528Z,97017.75
2024-01-05T21:41:07.981Z,97024.97
2024-01-05T21:43:34.552Z,97025.09
2024-01-05T21:46:00.996Z,97027.84
2024-01-05T21:48:27.622Z,97026.72
2024-01-05T21:50:54.157Z,97028.50
2024-01-05T21:53:20.717Z,97026.13
2024-01-05T21:55:47.131Z,97024.84
2024-01-05T21:58:14.039Z,97034.84
2024-01-05T22:00:40.775Z,97032.00
2024-01-05T22:03:07.412Z,97035.78
2024-01-05T22:05:33.971Z,97033.22
2024-01-05T22:08:00.861Z,97033.72
2024-01-05T22:10:27.998Z,97034.75
2024-01-05T22:12:54.839Z,97041.72
2024-01-05T22:15:21.389Z,97042.75
2024-01-05T22:17:47.881Z,97035.75
2024-01-05T22:20:15.333Z,97032.72
2024-01-05T22:22:42.097Z,97040.28
2024-01-05T22:25:08.952Z,97037.84
2024-01-05T22:27:35.733Z,97031.47
2024-01-05T22:30:02.291Z,97036.72
2024-01-05T22:32:31.346Z,97033.19
2024-01-05T22:34:58.719Z,97036.91
2024-01-05T22:37:25.281Z,97039.03
2024-01-05T22:39:51.781Z,97040.56
2024-01-05T22:42:18.297Z,97047.09
2024-01-05T22:44:44.704Z,97043.72
2024-01-05T22:47:11.092Z,97048.31
2024-01-05T22:49:41.338Z,97042.25
2024-01-05T22:52:08.826Z,97039.44
2024-01-05T22:54:35.858Z,97045.19
2024-01-05T22:57:03.815Z,97039.41
2024-01-05T22:59:32.248Z,97038.03
2024-01-05T23:01:59.398Z,97048.19
2024-01-05T23:04:27.548Z,97041.47
2024-01-05T23:07:00.455Z,97044.00
2024-01-05T23:09:27.316Z,97038.88
2024-01-05T23:11:54.057Z,97042.00
2024-01-05T23:14:20.458Z,97035.06
2024-01-05T23:16:48.281Z,97037.47
2024-01-05T23:19:14.904Z,97035.34
2024-01-05T23:21:41.927Z,97038.94
2024-01-05T23:24:08.576Z,97037.78
2024-01-05T23:26:35.067Z,97039.75
2024-01-05T23:29:01.479Z,97046.56
2024-01-05T23:31:28.040Z,97037.56
2024-01-05T23:34:04.806Z,97039.19
2024-01-05T23:36:39.622Z,97052.38
2024-01-05T23:39:06.112Z,97050.28
2024-01-05T23:41:32.548Z,97056.66
2024-01-05T23:43:59.009Z,97050.94
2024-01-05T23:46:25.402Z,97054.03
2024-01-05T23:48:52.067Z,97050.94
2024-01-05T23:51:18.527Z,97053.34
2024-01-05T23:53:45.063Z,97054.56
2024-01-05T23:56:11.517Z,97055.09
2024-01-05T23:58:37.968Z,97062.53
